Time;durP1;ratioP1;P1;durP2;ratioP2;P2;SDS_P1;SDS_P2;PMS_P1;PMS_P2;Temp;Humidity;BMP_temperature;BMP_pressure;BME280_temperature;BME280_humidity;BME280_pressure;Samples;Min_cycle;Max_cycle;Signal;HPM_P1;HPM_P2
2022/10/12 00:00:16;;;;;;;;;16.00;9.75;;;;;;;;5043803;28;62049;-78
2022/10/12 00:02:43;;;;;;;;;12.50;11.75;;;;;;;;5062309;28;61936;-78
2022/10/12 00:05:08;;;;;;;;;12.00;10.75;;;;;;;;5044437;28;61722;-78
2022/10/12 00:07:34;;;;;;;;;11.00;10.00;;;;;;;;5061433;28;61764;-78
2022/10/12 00:09:59;;;;;;;;;12.00;12.00;;;;;;;;5062123;28;62219;-78
2022/10/12 00:12:24;;;;;;;;;13.00;9.00;;;;;;;;5043180;28;61815;-78
2022/10/12 00:14:49;;;;;;;;;9.50;9.50;;;;;;;;5044076;28;62222;-78
2022/10/12 00:17:15;;;;;;;;;12.00;10.25;;;;;;;;5043381;28;64083;-78
2022/10/12 00:19:43;;;;;;;;;14.50;11.75;;;;;;;;5043371;28;62862;-78
2022/10/12 00:22:08;;;;;;;;;15.50;9.25;;;;;;;;5061901;28;61993;-78
2022/10/12 00:24:33;;;;;;;;;16.25;14.25;;;;;;;;5061642;28;61901;-78
2022/10/12 00:26:58;;;;;;;;;15.00;8.50;;;;;;;;5043031;28;63762;-78
2022/10/12 00:29:24;;;;;;;;;13.50;13.50;;;;;;;;5061847;28;61943;-78
2022/10/12 00:31:49;;;;;;;;;13.00;11.25;;;;;;;;5061814;28;61860;-78
2022/10/12 00:34:14;;;;;;;;;15.75;11.75;;;;;;;;5061790;28;61795;-78
2022/10/12 00:36:40;;;;;;;;;9.50;9.50;;;;;;;;5045673;28;63747;-78
2022/10/12 00:39:07;;;;;;;;;14.75;11.00;;;;;;;;5046849;28;61967;-78
2022/10/12 00:41:34;;;;;;;;;16.00;14.50;;;;;;;;5065083;28;61880;-78
2022/10/12 00:44:00;;;;;;;;;12.00;11.75;;;;;;;;5065596;28;61870;-78
2022/10/12 00:46:35;;;;;;;;;14.75;12.00;;;;;;;;5064800;28;62784;-78
2022/10/12 00:49:13;;;;;;;;;14.25;11.25;;;;;;;;5065027;28;62327;-78
2022/10/12 00:51:40;;;;;;;;;14.25;10.75;;;;;;;;5064843;28;61772;-78
2022/10/12 00:54:08;;;;;;;;;16.00;10.00;;;;;;;;5065095;28;61985;-78
2022/10/12 00:56:37;;;;;;;;;12.50;9.50;;;;;;;;5064177;28;63248;-78
2022/10/12 00:59:06;;;;;;;;;10.00;9.25;;;;;;;;5065040;28;62349;-78
2022/10/12 01:01:32;;;;;;;;;15.25;11.25;;;;;;;;5065154;28;61875;-78
2022/10/12 01:03:57;;;;;;;;;14.25;10.50;;;;;;;;5065093;28;61802;-78
2022/10/12 01:06:23;;;;;;;;;11.00;10.50;;;;;;;;5064276;28;62013;-78
2022/10/12 01:08:48;;;;;;;;;11.00;11.00;;;;;;;;5046258;28;62188;-78
2022/10/12 01:11:13;;;;;;;;;15.00;15.00;;;;;;;;5046267;28;61763;-78
2022/10/12 01:13:38;;;;;;;;;15.50;14.00;;;;;;;;5046302;28;62359;-78
2022/10/12 01:16:12;;;;;;;;;13.75;11.00;;;;;;;;5046179;28;63583;-78
2022/10/12 01:18:45;;;;;;;;;16.00;11.75;;;;;;;;5046216;28;61722;-78
2022/10/12 01:21:18;;;;;;;;;10.25;10.00;;;;;;;;5064609;28;62140;-77
2022/10/12 01:23:58;;;;;;;;;11.75;11.75;;;;;;;;5046244;28;61791;-78
2022/10/12 01:26:42;;;;;;;;;13.00;12.00;;;;;;;;5063922;28;61734;-78
2022/10/12 01:29:13;;;;;;;;;10.25;10.00;;;;;;;;5064571;28;61913;-78
2022/10/12 01:31:48;;;;;;;;;14.75;11.75;;;;;;;;5064468;28;61730;-78
2022/10/12 01:34:13;;;;;;;;;10.25;9.00;;;;;;;;5046140;28;61900;-78
2022/10/12 01:36:41;;;;;;;;;11.50;10.75;;;;;;;;5063500;28;62729;-78
2022/10/12 01:39:06;;;;;;;;;13.00;10.25;;;;;;;;5063915;28;62148;-78
2022/10/12 01:41:43;;;;;;;;;9.25;8.00;;;;;;;;5064721;28;61868;-78
2022/10/12 01:44:08;;;;;;;;;10.50;10.50;;;;;;;;5064685;28;61698;-78
2022/10/12 01:46:38;;;;;;;;;10.75;7.75;;;;;;;;5045193;28;63832;-79
2022/10/12 01:49:03;;;;;;;;;9.50;9.50;;;;;;;;5048680;28;62220;-78
2022/10/12 01:52:04;;;;;;;;;14.25;10.25;;;;;;;;5026077;28;62020;-78
2022/10/12 01:54:42;;;;;;;;;11.75;8.25;;;;;;;;5001342;28;62319;-78
2022/10/12 01:57:16;;;;;;;;;14.50;8.25;;;;;;;;5001085;28;61957;-78
2022/10/12 01:59:44;;;;;;;;;8.75;7.75;;;;;;;;4985031;28;62019;-78
2022/10/12 02:02:12;;;;;;;;;11.00;8.00;;;;;;;;5001667;28;61744;-78
2022/10/12 02:04:43;;;;;;;;;10.00;7.50;;;;;;;;5001874;28;62103;-78
2022/10/12 02:07:16;;;;;;;;;8.50;7.50;;;;;;;;5001001;28;61994;-77
2022/10/12 02:09:42;;;;;;;;;11.75;8.00;;;;;;;;5001075;28;61886;-78
2022/10/12 02:12:14;;;;;;;;;9.50;9.50;;;;;;;;4993677;28;61823;-78
2022/10/12 02:14:45;;;;;;;;;16.00;8.75;;;;;;;;5021526;28;62002;-78
2022/10/12 02:17:12;;;;;;;;;14.00;10.00;;;;;;;;5004050;28;65006;-78
2022/10/12 02:19:43;;;;;;;;;13.75;9.25;;;;;;;;5020990;28;61992;-78
2022/10/12 02:22:09;;;;;;;;;10.50;6.75;;;;;;;;5004503;28;61951;-79
2022/10/12 02:24:37;;;;;;;;;8.00;8.00;;;;;;;;5021003;28;62032;-78
2022/10/12 02:27:02;;;;;;;;;8.25;7.75;;;;;;;;5003939;28;64835;-78
2022/10/12 02:29:38;;;;;;;;;11.75;7.50;;;;;;;;5059732;28;61849;-78
2022/10/12 02:32:10;;;;;;;;;8.25;6.50;;;;;;;;5063850;28;61849;-78
2022/10/12 02:34:40;;;;;;;;;6.50;5.50;;;;;;;;5045683;28;61815;-78
2022/10/12 02:37:08;;;;;;;;;8.00;8.00;;;;;;;;5062401;28;62558;-78
2022/10/12 02:40:00;;;;;;;;;12.25;10.00;;;;;;;;5063341;28;61877;-78
2022/10/12 02:42:29;;;;;;;;;8.00;8.00;;;;;;;;5001073;28;62302;-78
2022/10/12 02:44:54;;;;;;;;;10.00;8.00;;;;;;;;4984706;28;62023;-78
2022/10/12 02:47:21;;;;;;;;;11.00;9.25;;;;;;;;5000161;28;62028;-77
2022/10/12 02:49:51;;;;;;;;;13.50;9.50;;;;;;;;5000979;28;61892;-78
2022/10/12 02:52:17;;;;;;;;;10.50;7.75;;;;;;;;5000412;28;62023;-78
2022/10/12 02:54:42;;;;;;;;;11.25;9.75;;;;;;;;4984378;28;62214;-78
2022/10/12 02:57:07;;;;;;;;;10.25;9.00;;;;;;;;4999962;28;62609;-78
2022/10/12 02:59:32;;;;;;;;;11.00;9.25;;;;;;;;4999559;28;61939;-78
2022/10/12 03:01:58;;;;;;;;;4.00;2.00;;;;;;;;5000657;28;62173;-78
2022/10/12 03:04:23;;;;;;;;;9.75;9.50;;;;;;;;5000930;28;62177;-78
2022/10/12 03:06:48;;;;;;;;;11.50;8.75;;;;;;;;4999848;28;63481;-78
2022/10/12 03:09:13;;;;;;;;;13.50;7.75;;;;;;;;5000030;28;61978;-78
2022/10/12 03:11:42;;;;;;;;;10.25;7.50;;;;;;;;4983922;28;61970;-78
2022/10/12 03:14:09;;;;;;;;;12.25;8.50;;;;;;;;5000337;28;61877;-78
2022/10/12 03:16:34;;;;;;;;;11.00;7.50;;;;;;;;4983514;28;64148;-78
2022/10/12 03:19:00;;;;;;;;;7.00;7.00;;;;;;;;5025033;28;61882;-78
2022/10/12 03:21:25;;;;;;;;;8.00;8.00;;;;;;;;5062937;28;61762;-78
2022/10/12 03:23:50;;;;;;;;;9.50;8.25;;;;;;;;5044266;28;61810;-78
2022/10/12 03:26:15;;;;;;;;;7.00;7.00;;;;;;;;5062056;28;63124;-78
2022/10/12 03:28:41;;;;;;;;;9.50;7.25;;;;;;;;5062812;28;62175;-78
2022/10/12 03:31:06;;;;;;;;;9.75;8.25;;;;;;;;5062554;28;62042;-78
2022/10/12 03:33:31;;;;;;;;;7.25;7.25;;;;;;;;5062617;28;61949;-78
2022/10/12 03:35:56;;;;;;;;;5.75;5.75;;;;;;;;5061508;28;62151;-78
2022/10/12 03:38:22;;;;;;;;;11.00;8.50;;;;;;;;5062605;28;61811;-78
2022/10/12 03:40:47;;;;;;;;;10.00;10.00;;;;;;;;5062556;28;61961;-78
2022/10/12 03:43:12;;;;;;;;;12.00;8.00;;;;;;;;5062353;28;62035;-78
2022/10/12 03:45:38;;;;;;;;;11.75;8.25;;;;;;;;5061888;28;61860;-78
2022/10/12 03:48:04;;;;;;;;;9.00;7.00;;;;;;;;5062317;28;62000;-78
2022/10/12 03:50:29;;;;;;;;;13.50;8.00;;;;;;;;5062117;28;61939;-78
2022/10/12 03:52:55;;;;;;;;;11.75;10.00;;;;;;;;5062401;28;61961;-78
2022/10/12 03:55:20;;;;;;;;;10.00;7.50;;;;;;;;5060930;28;61754;-78
2022/10/12 03:57:45;;;;;;;;;12.00;10.00;;;;;;;;5062368;28;62133;-78
2022/10/12 04:00:12;;;;;;;;;9.50;8.00;;;;;;;;5062282;28;61896;-78
2022/10/12 04:02:37;;;;;;;;;9.00;9.00;;;;;;;;5062504;28;61830;-78
2022/10/12 04:05:02;;;;;;;;;11.25;10.50;;;;;;;;5043121;28;63708;-78
2022/10/12 04:07:28;;;;;;;;;9.75;7.75;;;;;;;;5044243;28;61930;-78
2022/10/12 04:09:53;;;;;;;;;9.75;8.25;;;;;;;;5062735;28;61959;-78
2022/10/12 04:12:18;;;;;;;;;14.00;8.75;;;;;;;;5068786;28;61749;-78
2022/10/12 04:14:43;;;;;;;;;9.25;8.00;;;;;;;;5049957;28;63507;-77
2022/10/12 04:17:09;;;;;;;;;10.00;10.00;;;;;;;;5050453;28;62147;-78
2022/10/12 04:19:34;;;;;;;;;12.00;9.75;;;;;;;;5068161;28;61734;-78
2022/10/12 04:21:59;;;;;;;;;11.75;9.25;;;;;;;;5069090;28;61910;-78
2022/10/12 04:24:24;;;;;;;;;12.25;8.75;;;;;;;;5049377;28;65267;-78
2022/10/12 04:26:50;;;;;;;;;13.75;9.75;;;;;;;;5068721;28;61722;-77
2022/10/12 04:29:15;;;;;;;;;12.75;10.00;;;;;;;;5068580;28;61926;-78
2022/10/12 04:31:40;;;;;;;;;15.75;8.00;;;;;;;;5068891;28;61718;-78
2022/10/12 04:34:06;;;;;;;;;8.50;8.25;;;;;;;;5067759;28;62062;-78
2022/10/12 04:36:31;;;;;;;;;11.50;10.50;;;;;;;;5068007;28;61865;-78
2022/10/12 04:38:56;;;;;;;;;16.50;11.00;;;;;;;;5049845;28;61918;-77
2022/10/12 04:41:22;;;;;;;;;10.00;10.00;;;;;;;;5050392;28;61824;-78
2022/10/12 04:43:47;;;;;;;;;10.75;9.75;;;;;;;;5067943;28;61820;-78
2022/10/12 04:46:12;;;;;;;;;10.25;8.00;;;;;;;;5050404;28;61950;-78
2022/10/12 04:48:38;;;;;;;;;13.50;9.00;;;;;;;;5067412;28;61844;-78
2022/10/12 04:51:04;;;;;;;;;9.75;8.00;;;;;;;;5068429;28;61869;-78
2022/10/12 04:53:29;;;;;;;;;9.25;8.00;;;;;;;;5037297;28;63920;-78
2022/10/12 04:55:54;;;;;;;;;10.00;9.25;;;;;;;;5047902;28;61912;-78
2022/10/12 04:58:20;;;;;;;;;9.75;7.00;;;;;;;;5048037;28;61959;-78
2022/10/12 05:00:50;;;;;;;;;7.75;7.25;;;;;;;;5030500;28;62132;-78
2022/10/12 05:03:19;;;;;;;;;7.75;7.75;;;;;;;;5047093;28;61811;-78
2022/10/12 05:05:46;;;;;;;;;8.50;7.00;;;;;;;;5029988;28;61771;-78
2022/10/12 05:08:12;;;;;;;;;10.00;6.50;;;;;;;;5048097;28;61833;-78
2022/10/12 05:10:37;;;;;;;;;9.00;7.75;;;;;;;;5047792;28;61844;-78
2022/10/12 05:13:03;;;;;;;;;9.25;8.00;;;;;;;;5060363;28;61786;-78
2022/10/12 05:15:28;;;;;;;;;10.00;9.00;;;;;;;;5047808;28;62001;-79
2022/10/12 05:17:53;;;;;;;;;7.25;7.25;;;;;;;;5047748;28;61982;-79
2022/10/12 05:20:18;;;;;;;;;10.50;8.00;;;;;;;;5047790;28;61680;-79
2022/10/12 05:22:44;;;;;;;;;12.00;11.00;;;;;;;;5025730;28;63884;-78
2022/10/12 05:25:09;;;;;;;;;8.25;8.25;;;;;;;;5043847;28;61679;-79
2022/10/12 05:27:34;;;;;;;;;13.00;12.25;;;;;;;;5025361;28;61961;-79
2022/10/12 05:30:00;;;;;;;;;9.00;8.00;;;;;;;;5026617;28;62006;-79
2022/10/12 05:32:25;;;;;;;;;14.75;8.50;;;;;;;;5043477;28;61849;-79
2022/10/12 05:34:50;;;;;;;;;10.50;8.50;;;;;;;;5043758;28;61736;-79
2022/10/12 05:37:15;;;;;;;;;12.25;11.00;;;;;;;;5043582;28;61893;-78
2022/10/12 05:39:41;;;;;;;;;8.50;7.25;;;;;;;;5043520;28;62101;-79
2022/10/12 05:42:06;;;;;;;;;9.75;8.00;;;;;;;;5042681;28;63448;-78
2022/10/12 05:44:31;;;;;;;;;11.50;9.00;;;;;;;;5023403;28;62017;-79
2022/10/12 05:46:57;;;;;;;;;13.25;7.25;;;;;;;;5042906;28;61925;-79
2022/10/12 05:49:22;;;;;;;;;18.75;10.75;;;;;;;;5025584;28;62124;-79
2022/10/12 05:51:47;;;;;;;;;11.50;9.00;;;;;;;;5011528;28;65033;-79
2022/10/12 05:54:12;;;;;;;;;14.75;8.50;;;;;;;;5001773;28;62078;-79
2022/10/12 05:56:38;;;;;;;;;10.00;9.75;;;;;;;;5003780;28;61873;-79
2022/10/12 05:59:03;;;;;;;;;13.00;10.00;;;;;;;;5002204;28;61750;-79
2022/10/12 06:01:28;;;;;;;;;15.75;10.25;;;;;;;;5002967;28;61802;-79
2022/10/12 06:03:54;;;;;;;;;14.75;11.75;;;;;;;;5002312;28;61806;-79
2022/10/12 06:06:19;;;;;;;;;12.00;9.00;;;;;;;;5003919;28;61761;-79
2022/10/12 06:08:44;;;;;;;;;12.25;10.00;;;;;;;;5003945;28;62029;-79
2022/10/12 06:11:10;;;;;;;;;22.25;16.75;;;;;;;;5003435;28;62556;-79
2022/10/12 06:13:35;;;;;;;;;14.50;13.25;;;;;;;;5013501;28;61766;-79
2022/10/12 06:16:00;;;;;;;;;13.75;12.00;;;;;;;;5023178;28;61856;-79
2022/10/12 06:18:26;;;;;;;;;13.75;9.75;;;;;;;;5022038;28;62099;-79
2022/10/12 06:20:52;;;;;;;;;16.50;14.25;;;;;;;;5021443;28;63566;-79
2022/10/12 06:23:18;;;;;;;;;13.75;13.00;;;;;;;;5021676;28;61823;-79
2022/10/12 06:25:46;;;;;;;;;15.75;11.25;;;;;;;;5022865;28;61843;-79
2022/10/12 06:28:12;;;;;;;;;21.50;15.00;;;;;;;;5022189;28;61822;-79
2022/10/12 06:30:37;;;;;;;;;14.00;13.50;;;;;;;;5021027;28;63718;-78
2022/10/12 06:33:03;;;;;;;;;18.25;14.25;;;;;;;;5021517;28;62011;-79
2022/10/12 06:35:28;;;;;;;;;20.75;14.50;;;;;;;;5021826;28;62026;-78
2022/10/12 06:37:54;;;;;;;;;15.25;14.25;;;;;;;;5010409;28;61857;-79
2022/10/12 06:40:19;;;;;;;;;21.00;15.25;;;;;;;;5000575;28;64839;-78
2022/10/12 06:42:44;;;;;;;;;23.50;19.50;;;;;;;;5001362;28;61825;-78
2022/10/12 06:45:11;;;;;;;;;23.25;19.00;;;;;;;;5008371;28;61850;-78
2022/10/12 06:47:37;;;;;;;;;6.00;4.00;;;;;;;;5016749;28;61699;-77
2022/10/12 06:50:02;;;;;;;;;18.75;14.00;;;;;;;;5005867;28;61602;-75
2022/10/12 06:52:27;;;;;;;;;21.75;17.25;;;;;;;;5032280;28;61802;-78
2022/10/12 06:54:53;;;;;;;;;18.25;14.75;;;;;;;;5041572;28;61785;-75
2022/10/12 06:57:18;;;;;;;;;16.25;16.25;;;;;;;;5042556;28;61796;-75
2022/10/12 06:59:43;;;;;;;;;15.75;14.00;;;;;;;;5041064;28;63115;-77
2022/10/12 07:02:10;;;;;;;;;25.50;20.75;;;;;;;;5041624;28;61890;-75
2022/10/12 07:04:35;;;;;;;;;17.75;16.00;;;;;;;;5041727;28;62037;-75
2022/10/12 07:07:00;;;;;;;;;23.25;14.25;;;;;;;;5039228;28;62224;-75
2022/10/12 07:09:25;;;;;;;;;15.00;13.00;;;;;;;;5041300;28;62316;-78
2022/10/12 07:11:51;;;;;;;;;19.00;16.00;;;;;;;;5039896;28;61940;-76
2022/10/12 07:14:16;;;;;;;;;23.00;14.75;;;;;;;;5049498;28;61969;-76
2022/10/12 07:16:42;;;;;;;;;16.00;14.50;;;;;;;;5043033;28;61979;-76
2022/10/12 07:19:07;;;;;;;;;24.00;18.25;;;;;;;;5023553;28;64549;-76
2022/10/12 07:21:32;;;;;;;;;19.75;17.00;;;;;;;;5042509;28;61834;-76
2022/10/12 07:23:57;;;;;;;;;18.25;14.25;;;;;;;;5042290;28;62100;-76
2022/10/12 07:26:23;;;;;;;;;23.00;18.75;;;;;;;;5042689;28;62291;-76
2022/10/12 07:28:48;;;;;;;;;19.00;17.25;;;;;;;;5023495;28;63648;-77
2022/10/12 07:31:13;;;;;;;;;20.75;17.25;;;;;;;;5042158;28;61795;-76
2022/10/12 07:33:38;;;;;;;;;25.00;20.50;;;;;;;;5042604;28;61838;-77
2022/10/12 07:36:04;;;;;;;;;32.75;25.75;;;;;;;;5042376;28;62156;-76
2022/10/12 07:38:30;;;;;;;;;31.50;20.00;;;;;;;;5049899;28;62872;-76
2022/10/12 07:41:02;;;;;;;;;30.75;20.00;;;;;;;;5062172;28;61892;-76
2022/10/12 07:43:28;;;;;;;;;26.50;22.75;;;;;;;;5062104;28;61939;-76
2022/10/12 07:45:53;;;;;;;;;27.25;21.50;;;;;;;;5043439;28;62813;-76
2022/10/12 07:48:18;;;;;;;;;23.75;17.25;;;;;;;;5023190;28;63778;-76
2022/10/12 07:50:44;;;;;;;;;23.00;20.75;;;;;;;;5024051;28;61998;-76
2022/10/12 07:53:09;;;;;;;;;20.00;18.00;;;;;;;;5041737;28;62122;-76
2022/10/12 07:55:34;;;;;;;;;22.75;19.75;;;;;;;;5041866;28;61777;-76
2022/10/12 07:58:00;;;;;;;;;27.75;21.25;;;;;;;;5022962;28;63718;-76
2022/10/12 08:00:26;;;;;;;;;28.75;18.50;;;;;;;;5041946;28;61810;-76
2022/10/12 08:02:51;;;;;;;;;23.75;21.00;;;;;;;;5042191;28;62200;-76
2022/10/12 08:05:20;;;;;;;;;24.50;23.00;;;;;;;;5023876;28;62215;-76
2022/10/12 08:07:45;;;;;;;;;31.00;25.75;;;;;;;;5041176;28;61881;-76
2022/10/12 08:10:10;;;;;;;;;27.50;23.00;;;;;;;;5041394;28;61751;-76
2022/10/12 08:12:35;;;;;;;;;24.75;21.75;;;;;;;;5041577;28;62046;-76
2022/10/12 08:15:01;;;;;;;;;24.50;20.00;;;;;;;;5054812;28;61863;-76
2022/10/12 08:17:26;;;;;;;;;22.00;20.25;;;;;;;;5061488;28;61782;-76
2022/10/12 08:19:51;;;;;;;;;24.75;19.75;;;;;;;;5061743;28;61927;-76
2022/10/12 08:22:17;;;;;;;;;23.50;18.25;;;;;;;;5061843;28;62033;-76
2022/10/12 08:24:42;;;;;;;;;26.75;21.25;;;;;;;;5051668;28;62095;-76
2022/10/12 08:27:07;;;;;;;;;20.00;18.75;;;;;;;;5022585;28;63543;-76
2022/10/12 08:29:33;;;;;;;;;26.50;20.25;;;;;;;;5041857;28;61727;-76
2022/10/12 08:32:00;;;;;;;;;20.00;17.50;;;;;;;;5023646;28;61985;-76
2022/10/12 08:34:25;;;;;;;;;26.50;21.25;;;;;;;;5041545;28;61688;-76
2022/10/12 08:36:51;;;;;;;;;23.25;19.50;;;;;;;;5023250;28;63867;-76
2022/10/12 08:39:16;;;;;;;;;25.50;22.75;;;;;;;;5055523;28;62229;-77
2022/10/12 08:41:44;;;;;;;;;24.50;21.50;;;;;;;;5061605;28;61918;-77
2022/10/12 08:44:22;;;;;;;;;23.75;17.00;;;;;;;;5059274;28;61854;-76
2022/10/12 08:46:48;;;;;;;;;17.25;16.25;;;;;;;;5023171;28;63699;-76
2022/10/12 08:49:17;;;;;;;;;26.50;20.25;;;;;;;;5022966;28;61791;-77
2022/10/12 08:51:53;;;;;;;;;18.00;15.00;;;;;;;;5041024;28;61909;-77
2022/10/12 08:54:21;;;;;;;;;20.00;16.00;;;;;;;;5023118;28;61719;-77
2022/10/12 08:56:46;;;;;;;;;21.00;16.00;;;;;;;;5040920;28;61825;-77
2022/10/12 08:59:13;;;;;;;;;18.75;16.75;;;;;;;;5026478;28;61930;-76
2022/10/12 09:01:57;;;;;;;;;17.25;15.50;;;;;;;;5044992;28;61758;-77
2022/10/12 09:04:25;;;;;;;;;27.25;19.00;;;;;;;;5026922;28;61786;-77
2022/10/12 09:07:09;;;;;;;;;23.25;18.50;;;;;;;;5044253;28;63245;-76
2022/10/12 09:09:51;;;;;;;;;25.75;18.50;;;;;;;;5044084;28;61878;-76
2022/10/12 09:12:25;;;;;;;;;25.50;20.25;;;;;;;;5022815;28;62299;-77
2022/10/12 09:14:54;;;;;;;;;23.25;20.00;;;;;;;;5048936;28;61898;-76
2022/10/12 09:17:25;;;;;;;;;21.25;19.50;;;;;;;;5063902;28;62093;-77
2022/10/12 09:19:57;;;;;;;;;22.75;17.75;;;;;;;;5043798;28;61990;-77
2022/10/12 09:22:22;;;;;;;;;21.25;17.00;;;;;;;;5044414;28;61873;-76
2022/10/12 09:24:48;;;;;;;;;19.00;16.75;;;;;;;;5044352;28;61686;-77
2022/10/12 09:27:15;;;;;;;;;27.00;16.50;;;;;;;;5043782;28;61860;-76
2022/10/12 09:29:43;;;;;;;;;22.75;15.50;;;;;;;;5025917;28;62002;-77
2022/10/12 09:32:25;;;;;;;;;34.75;20.00;;;;;;;;5044548;28;61771;-77
2022/10/12 09:34:50;;;;;;;;;20.50;18.25;;;;;;;;5044546;28;61838;-76
2022/10/12 09:37:18;;;;;;;;;25.00;18.00;;;;;;;;5025380;28;63574;-76
2022/10/12 09:39:43;;;;;;;;;21.75;19.50;;;;;;;;5043902;28;61927;-77
2022/10/12 09:42:09;;;;;;;;;21.25;17.75;;;;;;;;5046050;28;62245;-77
2022/10/12 09:44:39;;;;;;;;;22.75;18.00;;;;;;;;5028800;28;62012;-77
2022/10/12 09:47:23;;;;;;;;;19.50;18.75;;;;;;;;5042798;28;62212;-77
2022/10/12 09:49:52;;;;;;;;;27.50;19.50;;;;;;;;5041425;28;62084;-76
2022/10/12 09:52:22;;;;;;;;;22.25;18.75;;;;;;;;5043226;28;61890;-76
2022/10/12 09:54:54;;;;;;;;;24.25;18.25;;;;;;;;5025643;28;62298;-77
2022/10/12 09:57:25;;;;;;;;;28.25;19.50;;;;;;;;5025077;28;63933;-76
2022/10/12 09:59:51;;;;;;;;;24.25;19.25;;;;;;;;5025657;28;62173;-77
2022/10/12 10:02:16;;;;;;;;;24.50;18.50;;;;;;;;5043473;28;61951;-77
2022/10/12 10:04:43;;;;;;;;;23.00;18.00;;;;;;;;5043231;28;62037;-77
2022/10/12 10:07:21;;;;;;;;;20.25;17.50;;;;;;;;5041881;28;61850;-77
2022/10/12 10:09:47;;;;;;;;;28.00;21.00;;;;;;;;5039803;28;62072;-77
2022/10/12 10:12:12;;;;;;;;;24.75;20.00;;;;;;;;5039808;28;61774;-76
2022/10/12 10:14:37;;;;;;;;;23.25;18.75;;;;;;;;5025448;28;61921;-77
2022/10/12 10:17:03;;;;;;;;;31.25;20.75;;;;;;;;5024213;28;63493;-77
2022/10/12 10:19:28;;;;;;;;;25.00;18.50;;;;;;;;5043017;28;61846;-76
2022/10/12 10:21:54;;;;;;;;;27.75;21.75;;;;;;;;5043829;28;61786;-76
2022/10/12 10:24:27;;;;;;;;;26.50;19.75;;;;;;;;5043198;28;61737;-76
2022/10/12 10:26:54;;;;;;;;;25.50;19.25;;;;;;;;5041619;28;61765;-76
2022/10/12 10:29:31;;;;;;;;;22.50;19.50;;;;;;;;5040434;28;61877;-78
2022/10/12 10:32:11;;;;;;;;;27.25;19.25;;;;;;;;5042941;28;62007;-77
2022/10/12 10:34:36;;;;;;;;;23.00;20.50;;;;;;;;5024846;28;61881;-78
2022/10/12 10:37:03;;;;;;;;;19.75;17.50;;;;;;;;5042094;28;62486;-78
2022/10/12 10:39:45;;;;;;;;;19.50;16.75;;;;;;;;5043852;28;62077;-77
2022/10/12 10:42:21;;;;;;;;;21.00;18.50;;;;;;;;5025448;28;61941;-77
2022/10/12 10:44:51;;;;;;;;;21.00;14.00;;;;;;;;5025151;28;61811;-77
2022/10/12 10:47:16;;;;;;;;;22.75;15.75;;;;;;;;5040947;28;62730;-77
2022/10/12 10:49:44;;;;;;;;;20.50;17.50;;;;;;;;5022763;28;62155;-77
2022/10/12 10:52:38;;;;;;;;;23.00;17.00;;;;;;;;5041462;28;61912;-77
2022/10/12 10:55:09;;;;;;;;;13.25;13.25;;;;;;;;5023350;28;61763;-77
2022/10/12 10:57:36;;;;;;;;;20.25;15.75;;;;;;;;5039052;28;61742;-77
2022/10/12 11:00:04;;;;;;;;;17.75;14.75;;;;;;;;5041910;28;61845;-77
2022/10/12 11:02:32;;;;;;;;;16.50;15.25;;;;;;;;5024533;28;61894;-77
2022/10/12 11:05:04;;;;;;;;;14.25;12.00;;;;;;;;5041200;28;61712;-78
2022/10/12 11:07:47;;;;;;;;;14.25;12.50;;;;;;;;5040806;28;61779;-77
2022/10/12 11:10:26;;;;;;;;;20.25;14.00;;;;;;;;5024053;28;61856;-77
2022/10/12 11:12:55;;;;;;;;;13.75;13.75;;;;;;;;5039575;28;61905;-77
2022/10/12 11:15:27;;;;;;;;;19.00;14.00;;;;;;;;5042103;28;62214;-76
2022/10/12 11:18:06;;;;;;;;;19.00;10.00;;;;;;;;5041335;28;62836;-77
2022/10/12 11:20:50;;;;;;;;;13.50;12.00;;;;;;;;5040861;28;61980;-77
2022/10/12 11:23:34;;;;;;;;;17.00;12.25;;;;;;;;5042607;28;61894;-77
2022/10/12 11:26:02;;;;;;;;;18.00;12.00;;;;;;;;5042250;28;61993;-76
2022/10/12 11:28:29;;;;;;;;;13.50;12.25;;;;;;;;5054086;28;61976;-77
2022/10/12 11:30:55;;;;;;;;;18.00;13.25;;;;;;;;5045953;28;61850;-76
2022/10/12 11:33:23;;;;;;;;;16.00;10.50;;;;;;;;5030618;28;62336;-77
2022/10/12 11:35:49;;;;;;;;;16.50;10.25;;;;;;;;5050983;28;62199;-77
2022/10/12 11:38:22;;;;;;;;;14.25;12.00;;;;;;;;5047050;28;61967;-76
2022/10/12 11:40:50;;;;;;;;;13.75;9.50;;;;;;;;5046196;28;62376;-77
2022/10/12 11:43:21;;;;;;;;;7.75;7.75;;;;;;;;5026171;28;61814;-77
2022/10/12 11:45:48;;;;;;;;;15.25;12.00;;;;;;;;5048464;28;62023;-77
2022/10/12 11:48:21;;;;;;;;;11.00;9.75;;;;;;;;5047457;28;63135;-77
2022/10/12 11:50:48;;;;;;;;;9.50;8.00;;;;;;;;5022279;28;61918;-76
2022/10/12 11:53:53;;;;;;;;;12.25;10.50;;;;;;;;5021969;28;61926;-77
2022/10/12 11:56:28;;;;;;;;;7.75;6.75;;;;;;;;4952399;28;61755;-76
2022/10/12 11:58:56;;;;;;;;;15.25;10.00;;;;;;;;4956240;28;62224;-77
2022/10/12 12:01:37;;;;;;;;;10.25;7.00;;;;;;;;4956862;28;62095;-77
2022/10/12 12:04:13;;;;;;;;;10.50;6.50;;;;;;;;4953539;28;62064;-76
2022/10/12 12:06:41;;;;;;;;;11.25;5.25;;;;;;;;4956752;28;61909;-77
2022/10/12 12:09:20;;;;;;;;;10.50;7.00;;;;;;;;4956020;28;61919;-77
2022/10/12 12:11:46;;;;;;;;;7.50;6.50;;;;;;;;4954210;28;62060;-77
2022/10/12 12:14:20;;;;;;;;;10.75;7.75;;;;;;;;4955910;28;62308;-77
2022/10/12 12:16:46;;;;;;;;;9.00;6.75;;;;;;;;4953374;28;61982;-76
2022/10/12 12:19:37;;;;;;;;;10.25;7.00;;;;;;;;4934816;28;64800;-77
2022/10/12 12:22:12;;;;;;;;;11.50;7.25;;;;;;;;4945378;28;62150;-77
2022/10/12 12:24:38;;;;;;;;;10.50;7.00;;;;;;;;4945820;28;62095;-78
2022/10/12 12:27:19;;;;;;;;;10.25;8.50;;;;;;;;5000099;28;61966;-76
2022/10/12 12:29:49;;;;;;;;;10.50;9.50;;;;;;;;5051551;28;61929;-77
2022/10/12 12:32:14;;;;;;;;;8.25;6.00;;;;;;;;5050649;28;61877;-77
2022/10/12 12:34:47;;;;;;;;;6.50;5.75;;;;;;;;5046494;28;62090;-77
2022/10/12 12:37:12;;;;;;;;;6.50;5.50;;;;;;;;5030662;28;62068;-77
2022/10/12 12:39:38;;;;;;;;;9.25;7.25;;;;;;;;5025922;28;63761;-77
2022/10/12 12:42:06;;;;;;;;;8.50;7.25;;;;;;;;5027731;28;61925;-77
2022/10/12 12:44:41;;;;;;;;;9.75;8.75;;;;;;;;5035337;28;62072;-77
2022/10/12 12:47:08;;;;;;;;;12.75;9.25;;;;;;;;5031011;28;61919;-77
2022/10/12 12:49:36;;;;;;;;;9.50;7.50;;;;;;;;5046705;28;63051;-77
2022/10/12 12:52:04;;;;;;;;;19.00;10.00;;;;;;;;5025052;28;62214;-77
2022/10/12 12:54:30;;;;;;;;;12.25;8.00;;;;;;;;5041924;28;61991;-77
2022/10/12 12:57:24;;;;;;;;;9.75;7.50;;;;;;;;5042993;28;61909;-78
2022/10/12 12:59:50;;;;;;;;;7.75;6.50;;;;;;;;5024029;28;63009;-77
2022/10/12 13:02:45;;;;;;;;;9.50;6.75;;;;;;;;5043167;28;61758;-77
2022/10/12 13:05:29;;;;;;;;;7.00;7.00;;;;;;;;5024474;28;61948;-78
2022/10/12 13:08:14;;;;;;;;;8.00;5.33;;;;;;;;5025795;28;61862;-76
2022/10/12 13:10:45;;;;;;;;;7.00;7.00;;;;;;;;4960845;28;62868;-77
2022/10/12 13:13:14;;;;;;;;;11.00;6.00;;;;;;;;4962153;28;61834;-77
2022/10/12 13:15:39;;;;;;;;;7.33;6.67;;;;;;;;4946224;28;62024;-77
2022/10/12 13:18:30;;;;;;;;;4.00;4.00;;;;;;;;4962332;28;62198;-77
2022/10/12 13:20:56;;;;;;;;;7.00;4.33;;;;;;;;4928490;28;61983;-77
2022/10/12 13:23:23;;;;;;;;;8.67;4.33;;;;;;;;4940371;28;61893;-77
2022/10/12 13:25:53;;;;;;;;;8.33;5.00;;;;;;;;4943051;28;61942;-78
2022/10/12 13:28:23;;;;;;;;;8.00;6.00;;;;;;;;4943312;28;62141;-77
2022/10/12 13:30:59;;;;;;;;;10.00;6.00;;;;;;;;4922349;28;64940;-77
2022/10/12 13:33:31;;;;;;;;;8.00;6.33;;;;;;;;4939140;28;62098;-77
2022/10/12 13:36:07;;;;;;;;;10.00;5.67;;;;;;;;4923826;28;62210;-77
2022/10/12 13:38:34;;;;;;;;;8.00;4.00;;;;;;;;4932100;28;62079;-77
2022/10/12 13:41:02;;;;;;;;;6.67;5.00;;;;;;;;4931734;28;61908;-77
2022/10/12 13:43:32;;;;;;;;;6.67;5.00;;;;;;;;4925405;28;61879;-77
2022/10/12 13:45:58;;;;;;;;;6.00;6.00;;;;;;;;4906921;28;62210;-77
2022/10/12 13:48:23;;;;;;;;;3.00;3.00;;;;;;;;4952451;28;61715;-76
2022/10/12 13:50:52;;;;;;;;;4.33;4.33;;;;;;;;4966205;28;62780;-77
2022/10/12 13:53:18;;;;;;;;;6.00;4.00;;;;;;;;4952641;28;61870;-76
2022/10/12 13:55:49;;;;;;;;;7.00;5.00;;;;;;;;4942800;28;61810;-77
2022/10/12 13:58:34;;;;;;;;;6.00;6.00;;;;;;;;5013323;28;61900;-76
2022/10/12 14:01:00;;;;;;;;;3.00;3.00;;;;;;;;5041558;28;61968;-77
2022/10/12 14:03:26;;;;;;;;;5.00;4.00;;;;;;;;5041836;28;61753;-77
2022/10/12 14:05:52;;;;;;;;;4.00;4.00;;;;;;;;5041639;28;62162;-77
2022/10/12 14:08:25;;;;;;;;;4.33;2.67;;;;;;;;5042608;28;61830;-77
2022/10/12 14:10:51;;;;;;;;;3.00;3.00;;;;;;;;5038557;28;62582;-78
2022/10/12 14:13:23;;;;;;;;;2.67;2.67;;;;;;;;5019342;28;61982;-79
2022/10/12 14:15:48;;;;;;;;;3.67;3.00;;;;;;;;5039209;28;61905;-79
2022/10/12 14:18:31;;;;;;;;;6.33;3.00;;;;;;;;5042019;28;61778;-78
2022/10/12 14:21:22;;;;;;;;;4.67;3.67;;;;;;;;5043111;28;62088;-78
2022/10/12 14:23:49;;;;;;;;;3.67;3.00;;;;;;;;5040143;28;61907;-79
2022/10/12 14:26:27;;;;;;;;;3.33;3.00;;;;;;;;5043614;28;61765;-78
2022/10/12 14:28:53;;;;;;;;;3.00;3.00;;;;;;;;5043605;28;61901;-79
2022/10/12 14:31:18;;;;;;;;;4.00;4.00;;;;;;;;5042793;28;62796;-79
2022/10/12 14:33:43;;;;;;;;;2.00;2.00;;;;;;;;5024535;28;61855;-78